Flight Track Log - Related Links

Times and Time Zones

All times are in EDT time to prevent confusion due to time zone crossing. See the SWA267 flight status page for this flight to view local times or setup timezone preferences in your user account.

Time Position Orientation Groundspeed Altitude Reporting Facility
EDT Latitude Longitude Course Direction KTS MPH feet Rate Location/Type
Sun 02:09:11 PM 39.1667 -76.7000 270° West 164 189 1,300  Level Potomac TRACON
Sun 02:10:11 PM 39.1667 -76.7667 270° West 219 252 3,200 1,800 Climbing Potomac TRACON
Sun 02:11:11 PM 39.1000 -76.7167 150° Southeast 269 310 4,900 1,930 Climbing Potomac TRACON
Sun 02:12:06 PM 39.0833 -76.6333 104° East 310 357 6,900 2,122 Climbing Potomac TRACON
Sun 02:14:12 PM 39.1275 -76.4022 76° East 323 372 11,300 2,226 Climbing Washington Center
Sun 02:15:12 PM 39.1469 -76.2714 79° East 348 400 13,800 2,450 Climbing Washington Center
Sun 02:16:12 PM 39.1644 -76.1164 82° East 382 440 16,200 2,300 Climbing Washington Center
Sun 02:17:12 PM 39.1817 -75.9719 81° East 397 457 18,400 2,150 Climbing Washington Center
Sun 02:18:12 PM 39.2236 -75.8381 68° East 403 464 20,500 2,000 Climbing Washington Center
Sun 02:19:12 PM 39.3031 -75.7392 44° Northeast 381 438 22,400 1,700 Climbing Washington Center
Sun 02:20:12 PM 39.3844 -75.6319 46° Northeast 394 453 23,900 1,600 Climbing Washington Center
Sun 02:21:12 PM 39.4697 -75.5217 45° Northeast 409 471 25,600 1,750 Climbing Washington Center
Sun 02:22:12 PM 39.5531 -75.4139 45° Northeast 422 486 27,400 1,133 Climbing Washington Center
Sun 02:24:12 PM 39.7114 -75.1992 46° Northeast 450 518 29,000 536 Climbing New York Center
Sun 02:25:11 PM 39.7972 -75.0778 47° Northeast 455 524 29,000  Level New York Center
Sun 02:26:12 PM 39.8831 -74.9503 49° Northeast 455 524 29,000  Level New York Center
Sun 02:27:12 PM 39.9875 -74.8267 42° Northeast 455 524 29,000  Level New York Center
Sun 02:28:13 PM 40.0975 -74.7789 18° North 415 478 29,000  Level New York Center
Sun 02:29:11 PM 40.2136 -74.7392 15° North 415 478 29,000 -51 Level New York Center
Sun 02:30:11 PM 40.3297 -74.6969 15° North 423 487 28,900  Descending New York Center
Sun 02:31:13 PM 40.4414 -74.6542 16° North 418 481 29,000 50 Climbing New York Center
Sun 02:32:12 PM 40.5511 -74.6139 16° North 418 481 29,000  Level New York Center
Sun 02:33:10 PM 40.6628 -74.5764 14° North 413 475 29,000  Level New York Center
Sun 02:34:50 PM 40.8328 -74.5139 16° North 420 483 29,000 -38 Level Boston Center
Sun 02:35:50 PM 40.9400 -74.4733 16° North 414 476 28,900  Descending Boston Center
Sun 02:36:51 PM 41.0489 -74.4383 14° North 408 470 29,000 50 Climbing Boston Center
Sun 02:37:51 PM 41.1558 -74.3975 16° North 403 464 29,000  Level Boston Center
Sun 02:38:49 PM 41.2650 -74.3594 15° North 403 464 29,000  Level Boston Center
Sun 02:39:50 PM 41.3719 -74.3183 16° North 398 458 29,000  Level Boston Center
Sun 02:40:50 PM 41.4789 -74.2800 15° North 398 458 29,000  Level Boston Center
Sun 02:41:50 PM 41.6025 -74.2392 14° North 403 464 29,000  Level Boston Center
Sun 02:42:51 PM 41.7094 -74.1975 16° North 403 464 29,000  Level Boston Center
Sun 02:43:49 PM 41.8036 -74.1639 15° North 398 458 29,000  Level Boston Center
Sun 02:44:49 PM 41.9128 -74.1250 15° North 392 451 29,000 -50 Level Boston Center
Sun 02:45:50 PM 42.0178 -74.0608 24° Northeast 398 458 28,900 -600 Descending Boston Center
Sun 02:46:49 PM 42.0969 -73.9061 55° Northeast 414 476 27,800 -1,008 Descending Boston Center
Sun 02:47:49 PM 42.1572 -73.7619 61° Northeast 456 525 26,900 -900 Descending Boston Center
Sun 02:48:49 PM 42.2256 -73.6064 59° Northeast 469 540 26,000 -942 Descending Boston Center
Sun 02:49:50 PM 42.2939 -73.4506 59° Northeast 469 540 25,000 -851 Descending Boston Center
Sun 02:51:03 PM 42.3639 -73.2972 58° Northeast 461 531 24,100 -947 Descending Boston Center
Sun 02:52:03 PM 42.4422 -73.1153 60° Northeast 469 540 22,900 -821 Descending Boston Center
Sun 02:53:00 PM 42.5056 -72.9611 61° Northeast 463 533 22,500 -763 Descending Boston Center
Sun 02:54:01 PM 42.5686 -72.8150 60° Northeast 463 533 21,400 -1,736 Descending Boston Center
Sun 02:55:01 PM 42.6356 -72.6658 59° Northeast 441 507 19,000 -2,200 Descending Boston Center
Sun 02:56:01 PM 42.6942 -72.5306 59° Northeast 423 487 17,000 -1,818 Descending Boston Center
Sun 02:57:13 PM 42.7483 -72.4033 60° Northeast 405 466 15,000 -1,624 Descending Boston Center
Sun 02:58:14 PM 42.7900 -72.3014 61° Northeast 392 451 13,400 -2,016 Descending Boston Center
Sun 02:59:15 PM 42.8064 -72.1089 83° East 365 420 10,900 -1,765 Descending Boston Center
Sun 03:00:13 PM 42.8164 -71.9817 84° East 346 398 9,900 -1,068 Descending Boston Center
Sun 03:01:13 PM 42.8219 -71.8683 86° East 320 368 8,800 -1,438 Descending Boston Center
Sun 03:02:14 PM 42.8278 -71.7606 86° East 291 335 7,000 -1,785 Descending Boston Center
Sun 03:03:14 PM 42.8144 -71.6561 100° East 286 329 5,200 -1,983 Descending Boston Center
Sun 03:04:15 PM 42.7950 -71.5544 105° East 280 322 3,000 -1,361 Descending Boston Center
Sun 03:05:13 PM 42.7881 -71.4583 96° East 270 311 2,500 -303 Descending Boston Center
Sun 03:06:14 PM 42.8292 -71.4067 43° Northeast 197 227 2,400 -451 Descending Boston Center
Sun 03:07:26 PM 42.8728 -71.3975 North 148 170 1,500 -767 Descending Boston Center
Sun 03:08:27 PM 42.9086 -71.4225 333° Northwest 129 148 700 -545 Descending Boston Center
Sun 03:09:27 PM 42.9400 -71.4361 342° North 129 148 400 4,256 Descending Boston Center
Sun 03:10:24 PM 42.9714 -71.4583 333° Northwest 129 148 9,000 4,373 Climbing Boston Center
Sun 03:11:25 PM 43.0028 -71.4778 336° Northwest 129 148 9,000  Level Boston Center
Sun 03:12:26 PM 43.0342 -71.5000 333° Northwest 129 148 9,000  Level Boston Center
Sun 03:14:00 PM 42.9328 -71.4358 166° South  Level Estimated
Sun 03:21:00 PM 42.9328 -71.4358 166° South  Level Estimated
Sun 03:22:00 PM 42.9328 -71.4358 166° South  Level Estimated
Sun 03:23:00 PM 42.9328 -71.4358 166° South  Level Estimated
Sun 03:24:00 PM 42.9328 -71.4358 166° South  Level Estimated
Sun 03:25:00 PM 42.9328 -71.4358 166° South  Level Estimated

Login

Don't have an account? Register now (free) for customized features, flight alerts, and more!